sensor_id;sensor_type;location;lat;lon;timestamp;P1;durP1;ratioP1;P2;durP2;ratioP2
77105;SDS011;66057;54.718;18.426;2023-08-31T00:00:09;3.75;;;1.92;;
77105;SDS011;66057;54.718;18.426;2023-08-31T00:02:56;3.38;;;2.53;;
77105;SDS011;66057;54.718;18.426;2023-08-31T00:05:21;3.45;;;2.35;;
77105;SDS011;66057;54.718;18.426;2023-08-31T00:07:50;4.70;;;2.45;;
77105;SDS011;66057;54.718;18.426;2023-08-31T00:10:16;2.50;;;1.92;;
77105;SDS011;66057;54.718;18.426;2023-08-31T00:12:42;2.63;;;2.08;;
77105;SDS011;66057;54.718;18.426;2023-08-31T00:15:09;2.47;;;1.60;;
77105;SDS011;66057;54.718;18.426;2023-08-31T00:17:35;4.13;;;2.17;;
77105;SDS011;66057;54.718;18.426;2023-08-31T00:20:00;4.28;;;2.60;;
77105;SDS011;66057;54.718;18.426;2023-08-31T00:22:26;6.30;;;2.97;;
77105;SDS011;66057;54.718;18.426;2023-08-31T00:24:52;5.60;;;3.05;;
77105;SDS011;66057;54.718;18.426;2023-08-31T00:27:18;2.90;;;2.00;;
77105;SDS011;66057;54.718;18.426;2023-08-31T00:29:43;6.05;;;2.40;;
77105;SDS011;66057;54.718;18.426;2023-08-31T00:32:15;3.08;;;1.75;;
77105;SDS011;66057;54.718;18.426;2023-08-31T00:34:40;2.30;;;1.75;;
77105;SDS011;66057;54.718;18.426;2023-08-31T00:37:06;3.58;;;2.00;;
77105;SDS011;66057;54.718;18.426;2023-08-31T00:39:32;2.50;;;2.00;;
77105;SDS011;66057;54.718;18.426;2023-08-31T00:41:59;2.67;;;2.15;;
77105;SDS011;66057;54.718;18.426;2023-08-31T00:44:24;2.67;;;2.08;;
77105;SDS011;66057;54.718;18.426;2023-08-31T00:46:50;3.40;;;2.10;;
77105;SDS011;66057;54.718;18.426;2023-08-31T00:51:43;3.92;;;2.45;;
77105;SDS011;66057;54.718;18.426;2023-08-31T00:54:16;3.33;;;2.00;;
77105;SDS011;66057;54.718;18.426;2023-08-31T00:56:42;3.03;;;2.13;;
77105;SDS011;66057;54.718;18.426;2023-08-31T00:59:08;2.97;;;2.03;;
77105;SDS011;66057;54.718;18.426;2023-08-31T01:01:39;3.17;;;2.15;;
77105;SDS011;66057;54.718;18.426;2023-08-31T01:04:31;3.85;;;2.40;;
77105;SDS011;66057;54.718;18.426;2023-08-31T01:12:54;2.83;;;2.00;;
77105;SDS011;66057;54.718;18.426;2023-08-31T01:15:36;2.08;;;1.80;;
77105;SDS011;66057;54.718;18.426;2023-08-31T01:18:05;3.35;;;1.83;;
77105;SDS011;66057;54.718;18.426;2023-08-31T01:20:37;3.85;;;1.60;;
77105;SDS011;66057;54.718;18.426;2023-08-31T01:23:10;3.05;;;1.83;;
77105;SDS011;66057;54.718;18.426;2023-08-31T01:25:38;3.78;;;2.50;;
77105;SDS011;66057;54.718;18.426;2023-08-31T01:28:06;2.45;;;1.70;;
77105;SDS011;66057;54.718;18.426;2023-08-31T01:30:34;3.85;;;1.85;;
77105;SDS011;66057;54.718;18.426;2023-08-31T01:33:00;2.72;;;1.73;;
77105;SDS011;66057;54.718;18.426;2023-08-31T01:35:26;2.50;;;1.75;;
77105;SDS011;66057;54.718;18.426;2023-08-31T01:37:56;3.35;;;2.13;;
77105;SDS011;66057;54.718;18.426;2023-08-31T01:40:27;3.47;;;1.83;;
77105;SDS011;66057;54.718;18.426;2023-08-31T01:43:16;3.03;;;2.10;;
77105;SDS011;66057;54.718;18.426;2023-08-31T01:45:42;2.83;;;2.08;;
77105;SDS011;66057;54.718;18.426;2023-08-31T01:48:11;2.33;;;1.85;;
77105;SDS011;66057;54.718;18.426;2023-08-31T01:50:39;3.03;;;2.25;;
77105;SDS011;66057;54.718;18.426;2023-08-31T01:53:04;3.83;;;2.38;;
77105;SDS011;66057;54.718;18.426;2023-08-31T01:55:32;2.72;;;1.88;;
77105;SDS011;66057;54.718;18.426;2023-08-31T01:57:58;3.72;;;2.28;;
77105;SDS011;66057;54.718;18.426;2023-08-31T02:00:24;4.32;;;1.95;;
77105;SDS011;66057;54.718;18.426;2023-08-31T02:02:50;4.45;;;2.33;;
77105;SDS011;66057;54.718;18.426;2023-08-31T02:05:16;2.55;;;1.88;;
77105;SDS011;66057;54.718;18.426;2023-08-31T02:07:42;2.13;;;1.42;;
77105;SDS011;66057;54.718;18.426;2023-08-31T02:10:08;2.58;;;2.08;;
77105;SDS011;66057;54.718;18.426;2023-08-31T02:12:34;2.55;;;2.03;;
77105;SDS011;66057;54.718;18.426;2023-08-31T02:15:01;1.63;;;1.17;;
77105;SDS011;66057;54.718;18.426;2023-08-31T02:17:29;1.83;;;1.30;;
77105;SDS011;66057;54.718;18.426;2023-08-31T02:19:55;2.42;;;1.75;;
77105;SDS011;66057;54.718;18.426;2023-08-31T02:22:21;1.33;;;0.95;;
77105;SDS011;66057;54.718;18.426;2023-08-31T02:24:46;4.22;;;1.23;;
77105;SDS011;66057;54.718;18.426;2023-08-31T02:27:12;3.80;;;0.80;;
77105;SDS011;66057;54.718;18.426;2023-08-31T02:29:38;2.13;;;1.50;;
77105;SDS011;66057;54.718;18.426;2023-08-31T02:32:04;2.97;;;1.20;;
77105;SDS011;66057;54.718;18.426;2023-08-31T02:34:30;1.70;;;1.20;;
77105;SDS011;66057;54.718;18.426;2023-08-31T02:36:56;1.92;;;0.95;;
77105;SDS011;66057;54.718;18.426;2023-08-31T02:39:21;2.28;;;2.10;;
77105;SDS011;66057;54.718;18.426;2023-08-31T02:41:47;2.17;;;1.33;;
77105;SDS011;66057;54.718;18.426;2023-08-31T02:44:13;1.38;;;1.00;;
77105;SDS011;66057;54.718;18.426;2023-08-31T02:46:39;2.65;;;1.77;;
77105;SDS011;66057;54.718;18.426;2023-08-31T02:49:04;2.28;;;1.02;;
77105;SDS011;66057;54.718;18.426;2023-08-31T02:51:30;2.53;;;1.10;;
77105;SDS011;66057;54.718;18.426;2023-08-31T02:53:56;1.38;;;0.95;;
77105;SDS011;66057;54.718;18.426;2023-08-31T02:56:21;2.85;;;0.70;;
77105;SDS011;66057;54.718;18.426;2023-08-31T02:58:47;3.40;;;1.05;;
77105;SDS011;66057;54.718;18.426;2023-08-31T03:01:13;2.85;;;1.05;;
77105;SDS011;66057;54.718;18.426;2023-08-31T03:03:40;1.85;;;0.90;;
77105;SDS011;66057;54.718;18.426;2023-08-31T03:06:07;1.27;;;0.95;;
77105;SDS011;66057;54.718;18.426;2023-08-31T03:08:33;1.73;;;0.82;;
77105;SDS011;66057;54.718;18.426;2023-08-31T03:13:25;0.70;;;0.50;;
77105;SDS011;66057;54.718;18.426;2023-08-31T03:15:51;1.08;;;0.75;;
77105;SDS011;66057;54.718;18.426;2023-08-31T03:18:17;1.63;;;0.82;;
77105;SDS011;66057;54.718;18.426;2023-08-31T03:20:44;1.33;;;0.60;;
77105;SDS011;66057;54.718;18.426;2023-08-31T03:23:15;1.00;;;0.60;;
77105;SDS011;66057;54.718;18.426;2023-08-31T03:25:41;1.10;;;0.60;;
77105;SDS011;66057;54.718;18.426;2023-08-31T03:28:07;2.22;;;0.50;;
77105;SDS011;66057;54.718;18.426;2023-08-31T03:30:32;1.10;;;0.77;;
77105;SDS011;66057;54.718;18.426;2023-08-31T03:32:58;1.45;;;0.60;;
77105;SDS011;66057;54.718;18.426;2023-08-31T03:35:24;0.73;;;0.50;;
77105;SDS011;66057;54.718;18.426;2023-08-31T03:37:52;0.73;;;0.30;;
77105;SDS011;66057;54.718;18.426;2023-08-31T03:40:18;0.73;;;0.40;;
77105;SDS011;66057;54.718;18.426;2023-08-31T03:42:44;1.23;;;0.30;;
77105;SDS011;66057;54.718;18.426;2023-08-31T03:45:10;0.85;;;0.50;;
77105;SDS011;66057;54.718;18.426;2023-08-31T03:47:36;0.98;;;0.40;;
77105;SDS011;66057;54.718;18.426;2023-08-31T03:50:03;1.10;;;0.50;;
77105;SDS011;66057;54.718;18.426;2023-08-31T03:52:32;0.47;;;0.30;;
77105;SDS011;66057;54.718;18.426;2023-08-31T03:54:58;0.52;;;0.13;;
77105;SDS011;66057;54.718;18.426;2023-08-31T03:57:24;1.15;;;0.75;;
77105;SDS011;66057;54.718;18.426;2023-08-31T03:59:49;1.33;;;0.60;;
77105;SDS011;66057;54.718;18.426;2023-08-31T04:02:15;0.90;;;0.57;;
77105;SDS011;66057;54.718;18.426;2023-08-31T04:04:41;1.58;;;0.73;;
77105;SDS011;66057;54.718;18.426;2023-08-31T04:07:06;2.22;;;0.80;;
77105;SDS011;66057;54.718;18.426;2023-08-31T04:09:32;1.45;;;0.95;;
77105;SDS011;66057;54.718;18.426;2023-08-31T04:11:58;1.17;;;0.80;;
77105;SDS011;66057;54.718;18.426;2023-08-31T04:14:27;0.90;;;0.35;;
77105;SDS011;66057;54.718;18.426;2023-08-31T04:16:54;1.33;;;0.60;;
77105;SDS011;66057;54.718;18.426;2023-08-31T04:19:20;1.42;;;0.45;;
77105;SDS011;66057;54.718;18.426;2023-08-31T04:21:46;0.75;;;0.20;;
77105;SDS011;66057;54.718;18.426;2023-08-31T04:24:11;0.70;;;0.38;;
77105;SDS011;66057;54.718;18.426;2023-08-31T04:26:37;0.40;;;0.20;;
77105;SDS011;66057;54.718;18.426;2023-08-31T04:29:03;0.93;;;0.55;;
77105;SDS011;66057;54.718;18.426;2023-08-31T04:31:31;0.40;;;0.30;;
77105;SDS011;66057;54.718;18.426;2023-08-31T04:33:57;1.15;;;0.50;;
77105;SDS011;66057;54.718;18.426;2023-08-31T04:36:23;1.42;;;0.65;;
77105;SDS011;66057;54.718;18.426;2023-08-31T04:38:51;2.60;;;0.50;;
77105;SDS011;66057;54.718;18.426;2023-08-31T04:41:17;0.73;;;0.38;;
77105;SDS011;66057;54.718;18.426;2023-08-31T04:46:09;2.45;;;0.60;;
77105;SDS011;66057;54.718;18.426;2023-08-31T04:51:01;1.05;;;0.60;;
77105;SDS011;66057;54.718;18.426;2023-08-31T04:53:29;0.75;;;0.30;;
77105;SDS011;66057;54.718;18.426;2023-08-31T04:55:55;1.02;;;0.50;;
77105;SDS011;66057;54.718;18.426;2023-08-31T04:58:21;1.35;;;0.60;;
77105;SDS011;66057;54.718;18.426;2023-08-31T05:00:47;1.15;;;0.57;;
77105;SDS011;66057;54.718;18.426;2023-08-31T05:03:13;2.72;;;0.63;;
77105;SDS011;66057;54.718;18.426;2023-08-31T05:05:39;1.27;;;0.50;;
77105;SDS011;66057;54.718;18.426;2023-08-31T05:08:07;1.80;;;0.40;;
77105;SDS011;66057;54.718;18.426;2023-08-31T05:10:33;3.50;;;0.50;;
77105;SDS011;66057;54.718;18.426;2023-08-31T05:12:59;0.60;;;0.20;;
77105;SDS011;66057;54.718;18.426;2023-08-31T05:15:25;3.95;;;0.52;;
77105;SDS011;66057;54.718;18.426;2023-08-31T05:17:53;2.55;;;0.35;;
77105;SDS011;66057;54.718;18.426;2023-08-31T05:20:19;2.35;;;0.50;;
77105;SDS011;66057;54.718;18.426;2023-08-31T05:22:48;1.00;;;0.68;;
77105;SDS011;66057;54.718;18.426;2023-08-31T05:25:13;1.08;;;0.30;;
77105;SDS011;66057;54.718;18.426;2023-08-31T05:30:05;2.38;;;0.70;;
77105;SDS011;66057;54.718;18.426;2023-08-31T05:32:32;0.93;;;0.40;;
77105;SDS011;66057;54.718;18.426;2023-08-31T05:34:57;1.25;;;0.60;;
77105;SDS011;66057;54.718;18.426;2023-08-31T05:37:25;1.25;;;0.85;;
77105;SDS011;66057;54.718;18.426;2023-08-31T05:39:50;1.52;;;0.52;;
77105;SDS011;66057;54.718;18.426;2023-08-31T05:42:17;3.15;;;0.60;;
77105;SDS011;66057;54.718;18.426;2023-08-31T05:44:43;1.55;;;0.98;;
77105;SDS011;66057;54.718;18.426;2023-08-31T05:47:09;2.10;;;0.98;;
77105;SDS011;66057;54.718;18.426;2023-08-31T05:49:35;1.50;;;0.85;;
77105;SDS011;66057;54.718;18.426;2023-08-31T05:52:01;2.42;;;0.80;;
77105;SDS011;66057;54.718;18.426;2023-08-31T05:54:26;2.42;;;0.93;;
77105;SDS011;66057;54.718;18.426;2023-08-31T05:56:52;5.75;;;1.23;;
77105;SDS011;66057;54.718;18.426;2023-08-31T05:59:18;2.00;;;1.05;;
77105;SDS011;66057;54.718;18.426;2023-08-31T06:01:44;2.25;;;1.10;;
77105;SDS011;66057;54.718;18.426;2023-08-31T06:04:09;2.42;;;1.27;;
77105;SDS011;66057;54.718;18.426;2023-08-31T06:06:35;3.05;;;1.45;;
77105;SDS011;66057;54.718;18.426;2023-08-31T06:09:01;3.85;;;1.52;;
77105;SDS011;66057;54.718;18.426;2023-08-31T06:11:27;2.33;;;1.23;;
77105;SDS011;66057;54.718;18.426;2023-08-31T06:13:53;2.28;;;1.33;;
77105;SDS011;66057;54.718;18.426;2023-08-31T06:16:19;3.70;;;1.63;;
77105;SDS011;66057;54.718;18.426;2023-08-31T06:18:45;2.13;;;1.00;;
77105;SDS011;66057;54.718;18.426;2023-08-31T06:21:11;10.38;;;5.93;;
77105;SDS011;66057;54.718;18.426;2023-08-31T06:23:37;3.25;;;1.40;;
77105;SDS011;66057;54.718;18.426;2023-08-31T06:26:02;2.40;;;1.70;;
77105;SDS011;66057;54.718;18.426;2023-08-31T06:28:29;2.15;;;1.50;;
77105;SDS011;66057;54.718;18.426;2023-08-31T06:30:54;2.60;;;1.40;;
77105;SDS011;66057;54.718;18.426;2023-08-31T06:33:20;4.07;;;1.67;;
77105;SDS011;66057;54.718;18.426;2023-08-31T06:35:47;1.48;;;1.00;;
77105;SDS011;66057;54.718;18.426;2023-08-31T06:38:17;2.78;;;1.38;;
77105;SDS011;66057;54.718;18.426;2023-08-31T06:40:44;2.22;;;1.40;;
77105;SDS011;66057;54.718;18.426;2023-08-31T06:43:09;2.33;;;1.48;;
77105;SDS011;66057;54.718;18.426;2023-08-31T06:45:35;1.77;;;0.80;;
77105;SDS011;66057;54.718;18.426;2023-08-31T06:48:01;2.80;;;1.08;;
77105;SDS011;66057;54.718;18.426;2023-08-31T06:50:28;4.32;;;1.35;;
77105;SDS011;66057;54.718;18.426;2023-08-31T06:52:53;2.95;;;1.42;;
77105;SDS011;66057;54.718;18.426;2023-08-31T06:55:19;4.95;;;1.50;;
77105;SDS011;66057;54.718;18.426;2023-08-31T06:57:45;2.47;;;0.95;;
77105;SDS011;66057;54.718;18.426;2023-08-31T07:00:11;4.40;;;1.70;;
77105;SDS011;66057;54.718;18.426;2023-08-31T07:05:12;2.47;;;1.25;;
77105;SDS011;66057;54.718;18.426;2023-08-31T07:07:38;3.20;;;1.77;;
77105;SDS011;66057;54.718;18.426;2023-08-31T07:10:04;1.42;;;0.95;;
77105;SDS011;66057;54.718;18.426;2023-08-31T07:12:31;2.75;;;1.40;;
77105;SDS011;66057;54.718;18.426;2023-08-31T07:14:57;2.53;;;1.20;;
77105;SDS011;66057;54.718;18.426;2023-08-31T07:17:22;3.45;;;1.38;;
77105;SDS011;66057;54.718;18.426;2023-08-31T07:19:48;1.90;;;1.00;;
77105;SDS011;66057;54.718;18.426;2023-08-31T07:22:14;2.47;;;1.35;;
77105;SDS011;66057;54.718;18.426;2023-08-31T07:24:40;2.67;;;1.23;;
77105;SDS011;66057;54.718;18.426;2023-08-31T07:27:06;2.15;;;1.55;;
77105;SDS011;66057;54.718;18.426;2023-08-31T07:29:32;2.33;;;1.23;;
77105;SDS011;66057;54.718;18.426;2023-08-31T07:31:58;2.28;;;0.90;;
77105;SDS011;66057;54.718;18.426;2023-08-31T07:34:24;1.67;;;1.13;;
77105;SDS011;66057;54.718;18.426;2023-08-31T07:36:49;1.33;;;0.93;;
77105;SDS011;66057;54.718;18.426;2023-08-31T07:39:16;1.00;;;0.57;;
77105;SDS011;66057;54.718;18.426;2023-08-31T07:41:45;1.83;;;0.98;;
77105;SDS011;66057;54.718;18.426;2023-08-31T07:44:10;2.00;;;0.85;;
77105;SDS011;66057;54.718;18.426;2023-08-31T07:46:36;3.20;;;1.15;;
77105;SDS011;66057;54.718;18.426;2023-08-31T07:49:02;3.08;;;0.93;;
77105;SDS011;66057;54.718;18.426;2023-08-31T07:51:29;2.42;;;0.60;;
77105;SDS011;66057;54.718;18.426;2023-08-31T07:53:55;3.20;;;1.25;;
77105;SDS011;66057;54.718;18.426;2023-08-31T07:56:21;4.45;;;1.63;;
77105;SDS011;66057;54.718;18.426;2023-08-31T07:58:49;3.08;;;1.48;;
77105;SDS011;66057;54.718;18.426;2023-08-31T08:01:15;3.25;;;1.70;;
77105;SDS011;66057;54.718;18.426;2023-08-31T08:03:41;2.83;;;1.33;;
77105;SDS011;66057;54.718;18.426;2023-08-31T08:06:07;3.60;;;1.33;;
77105;SDS011;66057;54.718;18.426;2023-08-31T08:08:33;1.63;;;0.70;;
77105;SDS011;66057;54.718;18.426;2023-08-31T08:10:58;2.65;;;1.27;;
77105;SDS011;66057;54.718;18.426;2023-08-31T08:13:25;1.92;;;0.90;;
77105;SDS011;66057;54.718;18.426;2023-08-31T08:15:51;1.77;;;0.65;;
77105;SDS011;66057;54.718;18.426;2023-08-31T08:18:17;1.92;;;0.70;;
77105;SDS011;66057;54.718;18.426;2023-08-31T08:20:42;1.27;;;0.63;;
77105;SDS011;66057;54.718;18.426;2023-08-31T08:23:08;1.92;;;0.60;;
77105;SDS011;66057;54.718;18.426;2023-08-31T08:25:34;2.30;;;1.13;;
77105;SDS011;66057;54.718;18.426;2023-08-31T08:28:00;1.45;;;0.80;;
77105;SDS011;66057;54.718;18.426;2023-08-31T08:30:26;1.08;;;0.50;;
77105;SDS011;66057;54.718;18.426;2023-08-31T08:32:52;2.05;;;0.68;;
77105;SDS011;66057;54.718;18.426;2023-08-31T08:35:17;2.70;;;0.50;;
77105;SDS011;66057;54.718;18.426;2023-08-31T08:37:43;2.65;;;0.95;;
77105;SDS011;66057;54.718;18.426;2023-08-31T08:40:09;2.35;;;0.65;;
77105;SDS011;66057;54.718;18.426;2023-08-31T08:42:40;1.85;;;0.75;;
77105;SDS011;66057;54.718;18.426;2023-08-31T08:45:12;1.23;;;0.77;;
77105;SDS011;66057;54.718;18.426;2023-08-31T08:47:44;3.22;;;1.13;;
77105;SDS011;66057;54.718;18.426;2023-08-31T08:50:12;1.77;;;0.43;;
77105;SDS011;66057;54.718;18.426;2023-08-31T08:52:38;3.22;;;0.70;;
77105;SDS011;66057;54.718;18.426;2023-08-31T08:57:31;0.95;;;0.45;;
77105;SDS011;66057;54.718;18.426;2023-08-31T08:59:57;2.70;;;0.80;;
77105;SDS011;66057;54.718;18.426;2023-08-31T09:02:24;0.93;;;0.50;;
77105;SDS011;66057;54.718;18.426;2023-08-31T09:04:49;1.58;;;0.57;;
77105;SDS011;66057;54.718;18.426;2023-08-31T09:07:20;1.92;;;0.52;;
77105;SDS011;66057;54.718;18.426;2023-08-31T09:09:50;3.17;;;0.90;;
77105;SDS011;66057;54.718;18.426;2023-08-31T09:12:17;1.33;;;0.55;;
77105;SDS011;66057;54.718;18.426;2023-08-31T09:14:55;1.95;;;0.73;;
77105;SDS011;66057;54.718;18.426;2023-08-31T09:17:23;2.38;;;0.70;;
77105;SDS011;66057;54.718;18.426;2023-08-31T09:19:58;0.95;;;0.70;;
77105;SDS011;66057;54.718;18.426;2023-08-31T09:22:26;2.22;;;0.80;;
77105;SDS011;66057;54.718;18.426;2023-08-31T09:24:52;1.02;;;0.40;;
77105;SDS011;66057;54.718;18.426;2023-08-31T09:27:19;1.42;;;0.80;;
77105;SDS011;66057;54.718;18.426;2023-08-31T09:29:50;3.03;;;0.60;;
77105;SDS011;66057;54.718;18.426;2023-08-31T09:32:21;0.68;;;0.40;;
77105;SDS011;66057;54.718;18.426;2023-08-31T09:34:46;2.33;;;1.00;;
77105;SDS011;66057;54.718;18.426;2023-08-31T09:37:15;2.53;;;0.55;;
77105;SDS011;66057;54.718;18.426;2023-08-31T09:39:41;0.40;;;0.30;;
77105;SDS011;66057;54.718;18.426;2023-08-31T09:42:08;1.98;;;0.77;;
77105;SDS011;66057;54.718;18.426;2023-08-31T09:44:34;1.27;;;0.57;;
77105;SDS011;66057;54.718;18.426;2023-08-31T09:47:05;1.10;;;0.73;;
77105;SDS011;66057;54.718;18.426;2023-08-31T09:49:31;1.08;;;0.50;;
77105;SDS011;66057;54.718;18.426;2023-08-31T09:51:58;2.22;;;0.55;;
77105;SDS011;66057;54.718;18.426;2023-08-31T09:54:28;1.05;;;0.65;;
77105;SDS011;66057;54.718;18.426;2023-08-31T09:56:55;1.20;;;0.40;;
77105;SDS011;66057;54.718;18.426;2023-08-31T09:59:22;1.00;;;0.50;;
77105;SDS011;66057;54.718;18.426;2023-08-31T10:01:49;0.90;;;0.70;;
77105;SDS011;66057;54.718;18.426;2023-08-31T10:04:14;1.33;;;0.70;;
77105;SDS011;66057;54.718;18.426;2023-08-31T10:06:42;2.03;;;0.40;;
77105;SDS011;66057;54.718;18.426;2023-08-31T10:09:08;2.35;;;0.60;;
77105;SDS011;66057;54.718;18.426;2023-08-31T10:11:40;1.63;;;0.90;;
77105;SDS011;66057;54.718;18.426;2023-08-31T10:14:07;3.75;;;1.00;;
77105;SDS011;66057;54.718;18.426;2023-08-31T10:16:34;3.03;;;0.50;;
77105;SDS011;66057;54.718;18.426;2023-08-31T10:19:02;2.55;;;0.70;;
77105;SDS011;66057;54.718;18.426;2023-08-31T10:21:28;1.45;;;1.05;;
77105;SDS011;66057;54.718;18.426;2023-08-31T10:23:54;1.38;;;0.85;;
77105;SDS011;66057;54.718;18.426;2023-08-31T10:26:30;2.22;;;0.70;;
77105;SDS011;66057;54.718;18.426;2023-08-31T10:28:57;1.33;;;0.60;;
77105;SDS011;66057;54.718;18.426;2023-08-31T10:31:29;2.65;;;0.60;;
77105;SDS011;66057;54.718;18.426;2023-08-31T10:33:59;1.15;;;0.65;;
77105;SDS011;66057;54.718;18.426;2023-08-31T10:39:05;0.70;;;0.35;;
77105;SDS011;66057;54.718;18.426;2023-08-31T10:41:36;0.75;;;0.40;;
77105;SDS011;66057;54.718;18.426;2023-08-31T10:44:01;1.02;;;0.30;;
77105;SDS011;66057;54.718;18.426;2023-08-31T10:46:34;1.23;;;0.50;;
77105;SDS011;66057;54.718;18.426;2023-08-31T10:51:37;1.13;;;0.50;;
77105;SDS011;66057;54.718;18.426;2023-08-31T10:56:30;2.72;;;0.40;;
77105;SDS011;66057;54.718;18.426;2023-08-31T10:58:59;1.52;;;0.32;;
77105;SDS011;66057;54.718;18.426;2023-08-31T11:04:28;0.70;;;0.40;;
77105;SDS011;66057;54.718;18.426;2023-08-31T11:09:48;0.82;;;0.47;;
77105;SDS011;66057;54.718;18.426;2023-08-31T11:12:15;1.20;;;0.40;;
77105;SDS011;66057;54.718;18.426;2023-08-31T11:14:41;1.15;;;0.30;;
77105;SDS011;66057;54.718;18.426;2023-08-31T11:19:34;1.30;;;0.55;;
77105;SDS011;66057;54.718;18.426;2023-08-31T11:22:01;0.80;;;0.40;;
77105;SDS011;66057;54.718;18.426;2023-08-31T11:24:31;0.90;;;0.35;;
77105;SDS011;66057;54.718;18.426;2023-08-31T11:26:58;0.88;;;0.40;;
77105;SDS011;66057;54.718;18.426;2023-08-31T11:31:50;0.60;;;0.30;;
77105;SDS011;66057;54.718;18.426;2023-08-31T11:34:16;2.83;;;1.13;;
77105;SDS011;66057;54.718;18.426;2023-08-31T11:36:44;1.95;;;0.30;;
77105;SDS011;66057;54.718;18.426;2023-08-31T11:39:13;1.42;;;0.25;;
77105;SDS011;66057;54.718;18.426;2023-08-31T11:41:40;1.63;;;0.40;;
77105;SDS011;66057;54.718;18.426;2023-08-31T11:44:12;1.27;;;0.28;;
77105;SDS011;66057;54.718;18.426;2023-08-31T11:46:42;5.70;;;0.70;;
77105;SDS011;66057;54.718;18.426;2023-08-31T11:49:09;1.15;;;0.30;;
77105;SDS011;66057;54.718;18.426;2023-08-31T11:54:03;0.25;;;0.10;;
77105;SDS011;66057;54.718;18.426;2023-08-31T11:59:09;1.38;;;0.35;;
77105;SDS011;66057;54.718;18.426;2023-08-31T12:01:40;1.85;;;0.40;;
77105;SDS011;66057;54.718;18.426;2023-08-31T12:04:11;3.13;;;0.50;;
77105;SDS011;66057;54.718;18.426;2023-08-31T12:06:51;2.25;;;0.65;;
77105;SDS011;66057;54.718;18.426;2023-08-31T12:09:19;0.90;;;0.40;;
77105;SDS011;66057;54.718;18.426;2023-08-31T12:11:49;1.20;;;0.68;;
77105;SDS011;66057;54.718;18.426;2023-08-31T12:14:20;0.73;;;0.47;;
77105;SDS011;66057;54.718;18.426;2023-08-31T12:16:48;1.13;;;0.50;;
77105;SDS011;66057;54.718;18.426;2023-08-31T12:19:14;1.63;;;0.65;;
77105;SDS011;66057;54.718;18.426;2023-08-31T12:21:42;1.00;;;0.50;;
77105;SDS011;66057;54.718;18.426;2023-08-31T12:24:09;0.82;;;0.40;;
77105;SDS011;66057;54.718;18.426;2023-08-31T12:26:35;1.52;;;0.40;;
77105;SDS011;66057;54.718;18.426;2023-08-31T12:29:02;1.90;;;0.50;;
77105;SDS011;66057;54.718;18.426;2023-08-31T12:31:30;1.27;;;0.70;;
77105;SDS011;66057;54.718;18.426;2023-08-31T12:33:57;2.00;;;0.43;;
77105;SDS011;66057;54.718;18.426;2023-08-31T12:38:49;2.05;;;0.52;;
77105;SDS011;66057;54.718;18.426;2023-08-31T12:41:14;1.20;;;0.60;;
77105;SDS011;66057;54.718;18.426;2023-08-31T12:43:40;1.15;;;0.43;;
77105;SDS011;66057;54.718;18.426;2023-08-31T12:46:06;3.03;;;0.70;;
77105;SDS011;66057;54.718;18.426;2023-08-31T12:48:34;1.13;;;0.47;;
77105;SDS011;66057;54.718;18.426;2023-08-31T12:51:01;2.42;;;0.70;;
77105;SDS011;66057;54.718;18.426;2023-08-31T12:53:26;0.90;;;0.40;;
77105;SDS011;66057;54.718;18.426;2023-08-31T12:55:54;1.17;;;0.50;;
77105;SDS011;66057;54.718;18.426;2023-08-31T13:00:47;2.15;;;0.50;;
77105;SDS011;66057;54.718;18.426;2023-08-31T13:03:14;1.23;;;0.88;;
77105;SDS011;66057;54.718;18.426;2023-08-31T13:05:41;1.52;;;0.43;;
77105;SDS011;66057;54.718;18.426;2023-08-31T13:08:07;1.23;;;0.60;;
77105;SDS011;66057;54.718;18.426;2023-08-31T13:10:35;1.58;;;0.68;;
77105;SDS011;66057;54.718;18.426;2023-08-31T13:13:01;2.10;;;0.73;;
77105;SDS011;66057;54.718;18.426;2023-08-31T13:15:27;1.83;;;0.70;;
77105;SDS011;66057;54.718;18.426;2023-08-31T13:17:53;2.10;;;1.20;;
77105;SDS011;66057;54.718;18.426;2023-08-31T13:20:19;1.55;;;0.70;;
77105;SDS011;66057;54.718;18.426;2023-08-31T13:22:44;0.88;;;0.70;;
77105;SDS011;66057;54.718;18.426;2023-08-31T13:25:10;3.70;;;1.02;;
77105;SDS011;66057;54.718;18.426;2023-08-31T13:27:36;2.67;;;2.03;;
77105;SDS011;66057;54.718;18.426;2023-08-31T13:30:03;4.18;;;0.90;;
77105;SDS011;66057;54.718;18.426;2023-08-31T13:32:34;2.25;;;1.20;;
77105;SDS011;66057;54.718;18.426;2023-08-31T13:35:00;4.22;;;1.63;;
77105;SDS011;66057;54.718;18.426;2023-08-31T13:37:26;4.53;;;1.90;;
77105;SDS011;66057;54.718;18.426;2023-08-31T13:39:52;3.45;;;1.50;;
77105;SDS011;66057;54.718;18.426;2023-08-31T13:42:20;2.75;;;1.50;;
77105;SDS011;66057;54.718;18.426;2023-08-31T13:44:46;2.47;;;1.60;;
77105;SDS011;66057;54.718;18.426;2023-08-31T13:47:12;2.10;;;1.52;;
77105;SDS011;66057;54.718;18.426;2023-08-31T13:49:40;3.50;;;1.70;;
77105;SDS011;66057;54.718;18.426;2023-08-31T13:52:05;3.95;;;1.92;;
77105;SDS011;66057;54.718;18.426;2023-08-31T13:54:33;2.92;;;1.58;;
77105;SDS011;66057;54.718;18.426;2023-08-31T13:56:59;3.28;;;1.85;;
77105;SDS011;66057;54.718;18.426;2023-08-31T13:59:25;2.17;;;1.50;;
77105;SDS011;66057;54.718;18.426;2023-08-31T14:01:54;3.92;;;1.80;;
77105;SDS011;66057;54.718;18.426;2023-08-31T14:04:20;3.78;;;2.30;;
77105;SDS011;66057;54.718;18.426;2023-08-31T14:06:47;2.95;;;2.00;;
77105;SDS011;66057;54.718;18.426;2023-08-31T14:11:39;4.50;;;2.38;;
77105;SDS011;66057;54.718;18.426;2023-08-31T14:14:05;5.15;;;2.38;;
77105;SDS011;66057;54.718;18.426;2023-08-31T14:16:35;4.72;;;2.20;;
77105;SDS011;66057;54.718;18.426;2023-08-31T14:19:03;5.88;;;2.67;;
77105;SDS011;66057;54.718;18.426;2023-08-31T14:21:29;4.10;;;2.08;;
77105;SDS011;66057;54.718;18.426;2023-08-31T14:23:55;3.78;;;2.30;;
77105;SDS011;66057;54.718;18.426;2023-08-31T14:26:24;4.18;;;2.42;;
77105;SDS011;66057;54.718;18.426;2023-08-31T14:28:50;6.10;;;2.53;;
77105;SDS011;66057;54.718;18.426;2023-08-31T14:31:17;5.43;;;2.78;;
77105;SDS011;66057;54.718;18.426;2023-08-31T14:33:44;3.65;;;2.47;;
77105;SDS011;66057;54.718;18.426;2023-08-31T14:36:09;4.90;;;3.30;;
77105;SDS011;66057;54.718;18.426;2023-08-31T14:38:35;4.78;;;2.95;;
77105;SDS011;66057;54.718;18.426;2023-08-31T14:41:01;6.25;;;3.15;;
77105;SDS011;66057;54.718;18.426;2023-08-31T14:43:27;8.38;;;4.28;;
77105;SDS011;66057;54.718;18.426;2023-08-31T14:45:53;5.35;;;2.88;;
77105;SDS011;66057;54.718;18.426;2023-08-31T14:48:19;5.72;;;2.58;;
77105;SDS011;66057;54.718;18.426;2023-08-31T14:50:44;5.93;;;2.53;;
77105;SDS011;66057;54.718;18.426;2023-08-31T14:53:10;7.53;;;3.05;;
77105;SDS011;66057;54.718;18.426;2023-08-31T14:55:36;5.43;;;2.90;;
77105;SDS011;66057;54.718;18.426;2023-08-31T14:58:04;6.30;;;3.15;;
77105;SDS011;66057;54.718;18.426;2023-08-31T15:00:31;5.45;;;3.22;;
77105;SDS011;66057;54.718;18.426;2023-08-31T15:02:57;7.50;;;3.30;;
77105;SDS011;66057;54.718;18.426;2023-08-31T15:05:23;4.53;;;3.30;;
77105;SDS011;66057;54.718;18.426;2023-08-31T15:07:51;7.75;;;3.05;;
77105;SDS011;66057;54.718;18.426;2023-08-31T15:10:16;4.75;;;3.47;;
77105;SDS011;66057;54.718;18.426;2023-08-31T15:12:43;4.57;;;3.22;;
77105;SDS011;66057;54.718;18.426;2023-08-31T15:15:09;5.05;;;3.03;;
77105;SDS011;66057;54.718;18.426;2023-08-31T15:17:35;4.00;;;2.78;;
77105;SDS011;66057;54.718;18.426;2023-08-31T15:20:02;6.72;;;3.17;;
77105;SDS011;66057;54.718;18.426;2023-08-31T15:24:54;5.80;;;2.90;;
77105;SDS011;66057;54.718;18.426;2023-08-31T15:27:20;4.50;;;3.00;;